Makkovik, Canada
Current Conditions -  °F | °C
As of 12:00 AM on Saturday 25 Oct 2014 (Local Time) from CWCA Reporting Station
Light Rain Light Rain  
Wind Chill: 31°   Ceiling: 1700
Heat Index: 36°   Visibility: 15mi
Dew Point: 32°   Wind: 6mph
Humidity: 87%   Direction: 50°NE
Pressure: 30.04"   Gusts: NA
Location:  55.08°N, 59.18°W
Report Text: CWCA 250300Z 05005KT 15SM -RA OVC017 02/00 A3004 RMK SC8 SLP172
Loading
Personal Weather Stations






























Interactive Weather Map
Tropical Storm Tracking
New forecast layout! Learn more

10-Day Weather Forecast

Advertisements
Track Severe Weather on mobile